Meteorología y climatología de Navarra
Datos de la estación - Meteo Navarra

Estación de Pamplona GN

Altitud 455 m.


Datos desde el 14/08/2019 hasta el 15/08/2019 en horario solar
Los datos son PROVISIONALES

Anterior Página 1 de 1 Siguiente Descargar: Formato para Excel 2000 o superior   Formato csv   Formato para OpenOffice Calc
Fecha Temperatura Humedad relativa Radiación global Insolación Precipitación Vel. viento 10 m Vel. viento 10 m Dir. viento 10 m
ºC % W/m² s l/m² m/s km/h º
14/08/2019 0:00 13.0 84 0.0 0 0.0 0.8 3.0 86
14/08/2019 0:10 13.0 83 0.0 0 0.0 0.5 1.9 102
14/08/2019 0:20 12.9 83 0.0 0 0.0 0.9 3.1 114
14/08/2019 0:30 12.9 84 0.0 0 0.0 1.1 3.9 98
14/08/2019 0:40 12.9 84 0.0 0 0.0 1.3 4.6 63
14/08/2019 0:50 12.7 84 0.0 0 0.0 1.3 4.6 62
14/08/2019 1:00 12.7 85 0.0 0 0.0 0.8 3.0 65
14/08/2019 1:10 12.5 85 0.0 0 0.0 0.9 3.1 62
14/08/2019 1:20 12.5 86 0.0 0 0.0 1.1 4.0 59
14/08/2019 1:30 12.5 86 0.0 0 0.0 0.9 3.2 64
14/08/2019 1:40 12.3 86 0.0 0 0.0 1.0 3.7 73
14/08/2019 1:50 12.2 86 0.0 0 0.0 1.2 4.2 55
14/08/2019 2:00 12.2 86 0.0 0 0.0 0.6 2.0 47
14/08/2019 2:10 12.2 86 0.0 0 0.0 0.1 0.4 54
14/08/2019 2:20 12.3 86 0.0 0 0.0 0.6 2.2 95
14/08/2019 2:30 12.2 87 0.0 0 0.0 1.1 3.9 58
14/08/2019 2:40 11.9 87 0.0 0 0.0 1.2 4.4 73
14/08/2019 2:50 11.9 88 0.0 0 0.0 1.1 4.1 94
14/08/2019 3:00 11.9 88 0.0 0 0.0 1.2 4.2 79
14/08/2019 3:10 11.7 88 0.0 0 0.0 1.3 4.8 75
14/08/2019 3:20 11.6 89 0.0 0 0.0 1.1 4.0 71
14/08/2019 3:30 11.5 88 0.0 0 0.0 1.2 4.1 82
14/08/2019 3:40 11.4 88 0.0 0 0.0 1.5 5.4 64
14/08/2019 3:50 11.2 88 0.0 0 0.0 1.0 3.5 70
14/08/2019 4:00 11.1 88 0.0 0 0.0 0.6 2.1 67
14/08/2019 4:10 11.0 89 0.0 0 0.0 0.9 3.3 70
14/08/2019 4:20 10.9 90 0.0 0 0.0 1.0 3.7 92
14/08/2019 4:30 10.9 89 0.0 0 0.0 1.2 4.4 74
14/08/2019 4:40 10.7 89 0.0 0 0.0 1.3 4.5 87
14/08/2019 4:50 10.6 89 0.0 0 0.0 0.9 3.2 78
14/08/2019 5:00 10.7 89 0.0 0 0.0 1.0 3.5 74
14/08/2019 5:10 10.6 89 0.0 0 0.0 0.9 3.2 68
14/08/2019 5:20 10.6 89 0.0 0 0.0 0.6 2.3 102
14/08/2019 5:30 10.6 89 5.5 0 0.0 0.2 0.8 97
14/08/2019 5:40 10.8 89 33.6 448 0.0 0.4 1.3 103
14/08/2019 5:50 11.0 88 33.2 40 0.0 0.5 1.6 67
14/08/2019 6:00 11.0 88 60.4 246 0.0 0.4 1.4 56
14/08/2019 6:10 11.1 86 46.6 70 0.0 0.7 2.7 45
14/08/2019 6:20 11.3 84 138.5 600 0.0 0.6 2.0 57
14/08/2019 6:30 12.1 80 166.2 600 0.0 1.0 3.6 50
14/08/2019 6:40 12.5 78 197.1 600 0.0 1.4 4.9 49
14/08/2019 6:50 12.8 78 228.7 600 0.0 1.4 4.9 48
14/08/2019 7:00 13.2 77 260.6 600 0.0 0.6 2.1 48
14/08/2019 7:10 13.7 74 292.0 600 0.0 0.6 2.2 93
14/08/2019 7:20 14.1 73 323.4 600 0.0 0.1 0.3 47
14/08/2019 7:30 14.4 71 354.4 600 0.0 0.7 2.3 46
14/08/2019 7:40 14.7 68 386.0 600 0.0 0.4 1.6 100
14/08/2019 7:50 15.5 68 418.6 600 0.0 0.2 0.8 99
14/08/2019 8:00 15.9 65 453.3 600 0.0 0.9 3.4 71
14/08/2019 8:10 16.0 64 484.0 600 0.0 0.9 3.1 71
14/08/2019 8:20 16.5 64 512.6 600 0.0 0.4 1.5 35
14/08/2019 8:30 16.7 62 542.8 600 0.0 0.3 1.1 96
14/08/2019 8:40 17.3 60 569.8 600 0.0 0.7 2.6 105
14/08/2019 8:50 17.6 59 598.8 600 0.0 0.4 1.5 62
14/08/2019 9:00 18.2 57 626.4 600 0.0 0.5 1.9 56
14/08/2019 9:10 18.6 56 653.3 600 0.0 0.8 2.7 56
14/08/2019 9:20 19.0 53 680.1 600 0.0 0.4 1.4 103
14/08/2019 9:30 19.7 50 644.1 600 0.0 0.5 1.7 100
14/08/2019 9:40 20.3 49 728.0 600 0.0 0.2 0.6 96
14/08/2019 9:50 20.9 47 746.5 600 0.0 0.6 2.2 165
14/08/2019 10:00 21.5 46 767.3 600 0.0 0.5 1.9 138
14/08/2019 10:10 22.1 45 788.7 600 0.0 0.7 2.5 61
14/08/2019 10:20 22.3 44 803.0 600 0.0 0.4 1.4 45
14/08/2019 10:30 22.9 43 820.0 600 0.0 0.2 0.8 307
14/08/2019 10:40 23.2 41 837.0 600 0.0 0.8 3.0 270
14/08/2019 10:50 23.5 40 854.0 600 0.0 0.5 1.9 253
14/08/2019 11:00 24.1 39 866.0 600 0.0 0.6 2.1 275
14/08/2019 11:10 24.7 38 878.0 600 0.0 0.5 1.9 264
14/08/2019 11:20 25.4 35 889.0 600 0.0 0.7 2.3 206
14/08/2019 11:30 25.4 36 898.0 600 0.0 1.3 4.5 301
14/08/2019 11:40 25.8 34 905.0 600 0.0 2.3 8.2 282
14/08/2019 11:50 26.0 33 912.0 600 0.0 1.8 6.3 293
14/08/2019 12:00 26.7 33 913.0 600 0.0 1.6 5.7 330
14/08/2019 12:10 26.6 32 914.0 600 0.0 3.0 10.7 316
14/08/2019 12:20 27.0 32 915.0 600 0.0 2.4 8.8 282
14/08/2019 12:30 26.9 33 914.0 600 0.0 3.0 10.7 303
14/08/2019 12:40 27.4 35 904.0 600 0.0 2.2 8.0 329
14/08/2019 12:50 27.4 36 894.0 600 0.0 2.7 9.8 0
14/08/2019 13:00 27.4 35 896.0 600 0.0 3.2 11.5 319
14/08/2019 13:10 27.3 33 890.0 600 0.0 3.2 11.6 305
14/08/2019 13:20 27.4 33 875.0 600 0.0 2.7 9.9 340
14/08/2019 13:30 27.3 33 872.0 600 0.0 4.0 14.5 331
14/08/2019 13:40 27.4 34 865.0 600 0.0 2.9 10.6 338
14/08/2019 13:50 27.2 34 852.0 600 0.0 3.5 12.7 336
14/08/2019 14:00 27.5 35 833.0 600 0.0 3.3 11.7 309
14/08/2019 14:10 27.2 35 816.0 600 0.0 3.5 12.5 306
14/08/2019 14:20 27.4 35 797.9 600 0.0 3.8 13.8 297
14/08/2019 14:30 27.5 36 776.2 600 0.0 3.6 12.9 299
14/08/2019 14:40 27.4 36 753.7 600 0.0 3.7 13.5 303
14/08/2019 14:50 27.5 36 729.2 600 0.0 3.4 12.1 295
14/08/2019 15:00 27.4 37 703.9 600 0.0 3.1 11.1 341
14/08/2019 15:10 27.0 38 679.6 600 0.0 3.9 13.9 8
14/08/2019 15:20 26.6 40 664.8 600 0.0 3.7 13.3 356
14/08/2019 15:30 26.6 40 649.6 600 0.0 3.1 11.0 13
14/08/2019 15:40 26.6 39 617.4 600 0.0 2.6 9.4 359
14/08/2019 15:50 26.6 39 574.9 600 0.0 2.2 7.9 357
14/08/2019 16:00 26.4 38 557.5 600 0.0 2.5 8.9 8
14/08/2019 16:10 26.3 38 517.1 600 0.0 2.4 8.6 357
14/08/2019 16:20 26.3 38 485.6 600 0.0 2.5 8.8 355
14/08/2019 16:30 26.3 37 455.2 600 0.0 1.9 6.9 338
14/08/2019 16:40 26.0 38 424.7 600 0.0 3.3 11.7 15
14/08/2019 16:50 25.6 39 395.1 600 0.0 3.7 13.2 13
14/08/2019 17:00 25.2 40 359.3 600 0.0 3.7 13.5 19
14/08/2019 17:10 25.1 41 320.8 600 0.0 3.3 11.9 358
14/08/2019 17:20 24.8 43 296.8 600 0.0 2.9 10.4 1
14/08/2019 17:30 24.7 44 251.8 564 0.0 3.4 12.1 328
14/08/2019 17:40 24.2 46 104.4 186 0.0 3.7 13.4 334
14/08/2019 17:50 23.6 48 71.1 60 0.0 3.4 12.4 344
14/08/2019 18:00 23.4 49 70.8 82 0.0 3.1 11.2 342
14/08/2019 18:10 23.2 50 138.4 548 0.0 3.6 12.9 349
14/08/2019 18:20 23.1 52 120.5 600 0.0 3.5 12.5 357
14/08/2019 18:30 22.8 53 89.0 568 0.0 2.3 8.3 11
14/08/2019 18:40 22.5 55 49.3 262 0.0 3.2 11.3 350
14/08/2019 18:50 22.3 57 26.1 22 0.0 2.2 8.0 357
14/08/2019 19:00 22.1 58 6.5 0 0.0 1.0 3.6 353
14/08/2019 19:10 21.8 59 0.0 0 0.0 1.4 5.0 7
14/08/2019 19:20 21.6 59 0.0 0 0.0 2.2 7.8 19
14/08/2019 19:30 21.3 58 0.0 0 0.0 3.2 11.4 25
14/08/2019 19:40 21.2 58 0.0 0 0.0 3.2 11.7 29
14/08/2019 19:50 20.9 59 0.0 0 0.0 2.8 10.0 33
14/08/2019 20:00 20.9 60 0.0 0 0.0 1.8 6.6 36
14/08/2019 20:10 20.7 60 0.0 0 0.0 1.6 5.8 35
14/08/2019 20:20 20.6 61 0.0 0 0.0 0.6 2.1 55
14/08/2019 20:30 20.6 62 0.0 0 0.0 1.8 6.6 16
14/08/2019 20:40 20.5 64 0.0 0 0.0 2.8 10.2 7
14/08/2019 20:50 20.4 65 0.0 0 0.0 2.3 8.3 14
14/08/2019 21:00 20.3 67 0.0 0 0.0 2.5 9.0 6
14/08/2019 21:10 20.1 68 0.0 0 0.0 1.8 6.4 351
14/08/2019 21:20 20.0 69 0.0 0 0.0 0.9 3.4 12
14/08/2019 21:30 20.0 68 0.0 0 0.0 1.1 4.1 45
14/08/2019 21:40 19.8 69 0.0 0 0.0 1.8 6.6 31
14/08/2019 21:50 19.7 71 0.0 0 0.0 1.6 5.7 25
14/08/2019 22:00 19.6 71 0.0 0 0.0 1.2 4.3 27
14/08/2019 22:10 19.7 72 0.0 0 0.0 1.4 4.9 16
14/08/2019 22:20 19.6 72 0.0 0 0.0 1.1 4.1 33
14/08/2019 22:30 19.5 73 0.0 0 0.0 0.9 3.1 11
14/08/2019 22:40 19.5 73 0.0 0 0.0 1.0 3.7 10
14/08/2019 22:50 19.4 75 0.0 0 0.0 1.2 4.3 4
14/08/2019 23:00 19.2 75 0.0 0 0.0 1.8 6.5 356
14/08/2019 23:10 19.2 76 0.0 0 0.0 1.5 5.4 1
14/08/2019 23:20 19.1 77 0.0 0 0.0 1.1 3.9 6
14/08/2019 23:30 19.2 77 0.0 0 0.0 0.8 3.0 20
14/08/2019 23:40 19.0 77 0.0 0 0.0 0.0 0.0 82
14/08/2019 23:50 19.0 77 0.0 0 0.0 0.0 0.0 83
Anterior Página 1 de 1 Siguiente

NOTA: Tipo de datos según el color:
   - Valores diarios o 10 minutos correctos
   - Valores diarios calculados a partir de un número de datos 10 minutos menor que 144 y mayor que 120, o de un número de datos semihorarios menor que 48 y mayor que 40 (caso de las estaciones de Riegos de Navarra y del MARM)
   - Valores diez minutos estimados


Contacto        Enlaces        Aviso legal